createdAt,value
2023-03-14T02:28:13.959Z,14.18
2023-03-14T02:36:33.648Z,14.40
2023-03-14T02:44:52.635Z,14.51
2023-03-14T02:53:11.829Z,14.07
2023-03-14T02:57:12.881Z,13.74
2023-03-14T03:01:12.917Z,12.84
2023-03-14T03:05:12.682Z,12.78
2023-03-14T03:09:12.766Z,12.98
2023-03-14T03:13:13.012Z,12.11
2023-03-14T03:17:13.069Z,12.11
2023-03-14T03:21:13.123Z,12.15
2023-03-14T03:25:13.294Z,11.25
2023-03-14T03:29:13.351Z,11.06
2023-03-14T03:33:13.146Z,10.95
2023-03-14T03:37:13.437Z,10.94
2023-03-14T03:41:13.332Z,10.78
2023-03-14T03:45:13.565Z,10.90
2023-03-14T03:49:13.399Z,10.77
2023-03-14T03:53:15.558Z,10.67
2023-03-14T03:57:13.369Z,10.06
2023-03-14T04:01:13.263Z,10.33
2023-03-14T04:05:13.605Z,9.29
2023-03-14T04:09:13.359Z,9.99
2023-03-14T04:13:13.332Z,9.87
2023-03-14T04:17:13.247Z,10.20
2023-03-14T04:21:13.108Z,10.77
2023-03-14T04:25:13.205Z,11.29
2023-03-14T04:29:13.602Z,11.66
2023-03-14T04:33:12.825Z,11.81
2023-03-14T04:37:12.801Z,11.92
2023-03-14T04:41:12.726Z,12.05
2023-03-14T04:45:12.804Z,11.73
2023-03-14T04:49:12.478Z,12.01
2023-03-14T04:53:12.303Z,12.18
2023-03-14T04:57:12.330Z,12.28
2023-03-14T05:01:11.935Z,12.32
2023-03-14T05:05:11.763Z,10.29
2023-03-14T05:09:11.864Z,10.04
2023-03-14T05:13:11.576Z,10.23
2023-03-14T05:17:11.619Z,10.60
2023-03-14T05:21:11.505Z,11.08
2023-03-14T05:25:11.499Z,11.40
2023-03-14T05:29:11.477Z,11.60
2023-03-14T05:33:11.493Z,11.56
2023-03-14T05:37:11.494Z,11.61
2023-03-14T05:41:11.593Z,11.60
2023-03-14T05:45:11.662Z,11.73
2023-03-14T05:49:11.610Z,11.77
2023-03-14T05:53:11.672Z,11.63
2023-03-14T05:57:11.668Z,11.54
2023-03-14T06:01:11.836Z,11.50
2023-03-14T06:05:12.122Z,11.50
2023-03-14T06:09:11.597Z,11.51
2023-03-14T06:13:11.403Z,11.53
2023-03-14T06:17:12.335Z,11.59
2023-03-14T06:21:11.785Z,11.51
2023-03-14T06:25:11.653Z,10.90
2023-03-14T06:29:11.258Z,10.65
2023-03-14T06:33:11.723Z,10.70
2023-03-14T06:37:11.657Z,10.82
2023-03-14T06:41:11.820Z,10.98
2023-03-14T06:45:11.990Z,11.04
2023-03-14T06:49:11.669Z,10.95
2023-03-14T06:53:12.233Z,10.79
2023-03-14T06:57:12.119Z,11.01
2023-03-14T07:01:12.790Z,11.15
2023-03-14T07:05:11.814Z,11.30
2023-03-14T07:09:12.110Z,11.44
2023-03-14T07:13:13.077Z,11.56
2023-03-14T07:17:12.251Z,11.71
2023-03-14T07:21:11.708Z,11.78
2023-03-14T07:25:11.630Z,11.85
2023-03-14T07:29:11.915Z,11.89
2023-03-14T07:33:11.903Z,11.99
2023-03-14T07:37:11.152Z,12.06
2023-03-14T07:41:11.225Z,12.12
2023-03-14T07:45:12.323Z,12.18
2023-03-14T07:49:11.165Z,12.23
2023-03-14T07:53:11.132Z,12.26
2023-03-14T07:57:12.056Z,12.30
2023-03-14T08:01:11.089Z,12.33
2023-03-14T08:05:11.201Z,12.35
2023-03-14T08:09:11.094Z,12.39
2023-03-14T08:13:11.418Z,12.36
2023-03-14T08:17:11.171Z,12.26
2023-03-14T08:21:11.096Z,12.25
2023-03-14T08:25:11.389Z,12.29
2023-03-14T08:29:11.385Z,12.33
2023-03-14T08:33:10.574Z,12.40
2023-03-14T08:37:26.576Z,12.37
2023-03-14T08:41:29.534Z,12.37
2023-03-14T08:45:31.202Z,12.30
2023-03-14T08:49:30.548Z,12.33
2023-03-14T08:53:31.092Z,12.33
2023-03-14T08:57:31.030Z,12.26
2023-03-14T09:01:31.631Z,12.25
2023-03-14T09:05:31.496Z,12.22
2023-03-14T09:09:32.120Z,12.04
2023-03-14T09:13:32.022Z,11.80
2023-03-14T09:17:32.567Z,11.53
2023-03-14T09:21:33.016Z,11.46
2023-03-14T09:25:33.006Z,11.21
2023-03-14T09:29:33.753Z,10.85
2023-03-14T09:33:34.081Z,10.82
2023-03-14T09:37:34.075Z,11.01
2023-03-14T09:41:34.701Z,11.11
2023-03-14T09:45:34.668Z,10.88
2023-03-14T09:49:35.597Z,10.82
2023-03-14T09:53:35.496Z,10.50
2023-03-14T09:57:35.975Z,10.39
2023-03-14T10:01:37.084Z,10.42
2023-03-14T10:05:37.067Z,10.28
2023-03-14T10:09:37.046Z,10.42
2023-03-14T10:13:37.529Z,10.42
2023-03-14T10:17:37.570Z,10.64
2023-03-14T10:21:38.091Z,10.26
2023-03-14T10:25:38.522Z,9.39
2023-03-14T10:29:39.026Z,9.46
2023-03-14T10:33:39.574Z,9.78
2023-03-14T10:37:40.305Z,10.01
2023-03-14T10:41:40.603Z,9.96
2023-03-14T10:45:40.581Z,10.49
2023-03-14T10:49:41.180Z,10.56
2023-03-14T10:53:42.147Z,10.42
2023-03-14T10:57:41.618Z,10.71
2023-03-14T11:01:42.636Z,10.98
2023-03-14T11:10:01.747Z,11.16
2023-03-14T11:14:02.650Z,11.46
2023-03-14T11:18:01.666Z,11.59
2023-03-14T11:22:01.896Z,11.49
2023-03-14T11:26:02.316Z,11.22
2023-03-14T11:38:40.052Z,11.23
2023-03-14T11:42:41.159Z,11.36
2023-03-14T11:50:59.222Z,11.53
2023-03-14T11:55:02.126Z,11.70
2023-03-14T11:59:00.765Z,11.59
2023-03-14T12:07:18.621Z,11.39
2023-03-14T12:17:34.132Z,11.39
2023-03-14T12:21:34.605Z,11.32
2023-03-14T12:29:53.526Z,11.22
2023-03-14T12:38:14.752Z,11.32
2023-03-14T12:46:32.504Z,11.04
2023-03-14T21:10:15.798Z,8.59
2023-03-14T21:14:16.668Z,8.67
2023-03-14T21:18:16.321Z,8.91
2023-03-14T21:22:15.705Z,9.06
2023-03-14T21:26:15.497Z,9.30
2023-03-14T21:30:15.116Z,9.50
2023-03-14T21:34:14.826Z,9.55
2023-03-14T21:38:14.745Z,9.36
2023-03-14T21:42:14.593Z,9.42
2023-03-14T21:46:14.089Z,9.44
2023-03-14T21:50:13.685Z,9.27
2023-03-14T21:54:13.410Z,9.42
2023-03-14T21:58:13.023Z,9.23
2023-03-14T22:02:12.936Z,9.09
2023-03-14T22:06:12.455Z,9.01
2023-03-14T22:10:12.078Z,8.28
2023-03-14T22:14:11.815Z,8.13
2023-03-14T22:18:11.601Z,7.76
2023-03-14T22:22:11.448Z,7.81
2023-03-14T22:26:11.205Z,7.64
2023-03-14T22:30:10.776Z,8.33
2023-03-14T22:34:10.635Z,8.72
2023-03-14T22:38:10.079Z,9.01
2023-03-14T22:42:09.790Z,7.74
2023-03-14T22:46:09.586Z,7.78
2023-03-14T22:50:09.271Z,7.23
2023-03-14T22:54:09.034Z,6.64
2023-03-14T22:58:08.749Z,6.92
2023-03-14T23:02:08.683Z,6.99
2023-03-14T23:06:08.500Z,7.40
2023-03-14T23:10:08.936Z,7.49
2023-03-14T23:14:08.484Z,7.69
2023-03-14T23:18:08.763Z,7.80
2023-03-14T23:22:08.719Z,7.87
2023-03-14T23:26:08.514Z,8.09
2023-03-14T23:30:08.764Z,8.19
2023-03-14T23:34:08.198Z,8.42
2023-03-14T23:38:08.044Z,8.60
2023-03-14T23:42:08.042Z,8.71
2023-03-14T23:46:07.625Z,8.53
2023-03-14T23:50:07.357Z,8.44
2023-03-14T23:54:07.349Z,8.35
2023-03-14T23:58:07.292Z,8.29
